Time;durP1;ratioP1;P1;durP2;ratioP2;P2;SDS_P1;SDS_P2;PMS_P1;PMS_P2;Temp;Humidity;BMP_temperature;BMP_pressure;BME280_temperature;BME280_humidity;BME280_pressure;Samples;Min_cycle;Max_cycle;Signal;HPM_P1;HPM_P2
2021/04/17 00:02:18;;;;;;;5.15;2.60;;;7.40;61.30;;;;;;5032087;28;20022;-76
2021/04/17 00:04:43;;;;;;;5.60;2.55;;;7.40;61.50;;;;;;5045938;28;20264;-76
2021/04/17 00:07:11;;;;;;;5.10;2.75;;;7.30;61.60;;;;;;5030894;28;20022;-76
2021/04/17 00:09:36;;;;;;;7.53;3.67;;;7.40;61.60;;;;;;5046519;28;20075;-76
2021/04/17 00:12:12;;;;;;;5.10;3.05;;;7.40;61.90;;;;;;5047178;28;20029;-76
2021/04/17 00:14:39;;;;;;;5.22;2.72;;;7.30;62.10;;;;;;5032032;28;20091;-76
2021/04/17 00:17:07;;;;;;;5.30;3.15;;;7.20;62.40;;;;;;5031887;28;20017;-76
2021/04/17 00:19:34;;;;;;;6.35;3.25;;;7.20;62.50;;;;;;5045611;28;20558;-76
2021/04/17 00:21:59;;;;;;;4.10;2.63;;;7.20;62.80;;;;;;5030645;28;20048;-76
2021/04/17 00:24:25;;;;;;;6.45;2.67;;;7.20;62.90;;;;;;5046339;28;20018;-76
2021/04/17 00:26:50;;;;;;;4.97;2.95;;;7.10;63.10;;;;;;5046368;28;20397;-76
2021/04/17 00:29:16;;;;;;;5.03;2.55;;;7.10;63.50;;;;;;5047088;28;20491;-76
2021/04/17 00:31:42;;;;;;;4.85;3.28;;;7.10;63.60;;;;;;5044387;28;20025;-76
2021/04/17 00:34:08;;;;;;;5.60;3.40;;;7.00;64.00;;;;;;5031948;28;20021;-76
2021/04/17 00:36:35;;;;;;;6.78;3.50;;;6.90;64.60;;;;;;5031738;28;20034;-76
2021/04/17 00:39:02;;;;;;;7.13;4.25;;;6.90;65.40;;;;;;5031681;28;20460;-76
2021/04/17 00:41:28;;;;;;;7.15;3.58;;;6.90;65.30;;;;;;5031787;28;20493;-76
2021/04/17 00:43:54;;;;;;;6.68;4.20;;;6.90;65.60;;;;;;5046156;28;20073;-76
2021/04/17 00:46:20;;;;;;;5.53;3.00;;;6.80;66.10;;;;;;5031851;28;20021;-76
2021/04/17 00:48:46;;;;;;;6.18;3.42;;;6.80;66.30;;;;;;5043187;28;20381;-76
2021/04/17 00:51:13;;;;;;;8.43;4.32;;;6.70;66.60;;;;;;5045789;28;20077;-76
2021/04/17 00:53:39;;;;;;;7.15;3.13;;;6.70;66.90;;;;;;5031704;28;20049;-76
2021/04/17 00:56:06;;;;;;;6.53;4.75;;;6.70;66.90;;;;;;5031411;28;20465;-76
2021/04/17 00:58:32;;;;;;;7.68;4.35;;;6.70;67.00;;;;;;5029700;28;20029;-76
2021/04/17 01:00:58;;;;;;;7.88;3.95;;;6.60;67.10;;;;;;5044965;28;20068;-76
2021/04/17 01:03:44;;;;;;;8.82;3.22;;;6.60;67.40;;;;;;5031582;28;20465;-76
2021/04/17 01:06:29;;;;;;;8.07;3.53;;;6.60;67.50;;;;;;5045370;28;20022;-76
2021/04/17 01:09:05;;;;;;;5.68;3.03;;;6.60;67.50;;;;;;5019376;28;20026;-76
2021/04/17 01:11:37;;;;;;;6.55;3.13;;;6.50;68.00;;;;;;5048468;28;20021;-76
2021/04/17 01:14:04;;;;;;;5.75;3.38;;;6.50;68.30;;;;;;5035260;28;20521;-76
2021/04/17 01:16:30;;;;;;;5.63;3.20;;;6.40;68.50;;;;;;5034490;28;20026;-76
2021/04/17 01:18:57;;;;;;;6.78;3.30;;;6.40;68.80;;;;;;5033331;28;20060;-76
2021/04/17 01:21:23;;;;;;;8.82;3.92;;;6.30;69.30;;;;;;5034900;28;20022;-76
2021/04/17 01:23:57;;;;;;;5.47;3.95;;;6.30;69.90;;;;;;5034856;28;20116;-76
2021/04/17 01:26:25;;;;;;;6.32;3.67;;;6.30;70.00;;;;;;5029252;28;20076;-76
2021/04/17 01:28:56;;;;;;;6.63;3.28;;;6.20;70.20;;;;;;5034810;28;20096;-76
2021/04/17 01:31:25;;;;;;;9.15;3.80;;;6.20;70.80;;;;;;5031113;28;20025;-76
2021/04/17 01:33:54;;;;;;;5.40;3.45;;;6.20;71.70;;;;;;5033428;28;20063;-76
2021/04/17 01:36:22;;;;;;;7.55;4.15;;;6.10;71.30;;;;;;5048157;28;20026;-76
2021/04/17 01:38:50;;;;;;;6.35;3.22;;;6.20;71.70;;;;;;5034535;28;20041;-76
2021/04/17 01:41:43;;;;;;;7.22;2.97;;;6.10;71.80;;;;;;5034666;28;20017;-76
2021/04/17 01:44:11;;;;;;;6.15;3.30;;;6.10;72.60;;;;;;5024352;28;20084;-76
2021/04/17 01:46:45;;;;;;;5.88;3.55;;;6.00;72.60;;;;;;5049473;28;20084;-76
2021/04/17 01:49:13;;;;;;;5.68;3.25;;;6.00;72.90;;;;;;5045860;28;20052;-76
2021/04/17 01:51:42;;;;;;;6.15;3.45;;;5.90;72.90;;;;;;5030611;28;20021;-76
2021/04/17 01:54:16;;;;;;;4.35;2.95;;;5.90;73.10;;;;;;5049148;28;20032;-76
2021/04/17 01:56:45;;;;;;;7.25;3.40;;;5.90;73.30;;;;;;5034256;28;20026;-76
2021/04/17 01:59:14;;;;;;;5.20;3.20;;;5.90;73.40;;;;;;5047113;28;20029;-76
2021/04/17 02:01:39;;;;;;;8.68;3.70;;;5.90;73.60;;;;;;5044595;28;20021;-76
2021/04/17 02:04:06;;;;;;;8.93;3.58;;;5.90;74.10;;;;;;5034403;28;20013;-76
2021/04/17 02:06:31;;;;;;;6.93;3.72;;;5.90;74.80;;;;;;5033950;28;20100;-76
2021/04/17 02:08:57;;;;;;;7.25;3.47;;;5.80;75.10;;;;;;5034058;28;20515;-76
2021/04/17 02:11:22;;;;;;;6.45;3.72;;;5.70;75.70;;;;;;5032745;28;20025;-76
2021/04/17 02:13:48;;;;;;;8.00;3.28;;;5.70;75.80;;;;;;5033909;28;20018;-76
2021/04/17 02:16:18;;;;;;;4.88;3.20;;;5.70;75.80;;;;;;5046372;28;20393;-76
2021/04/17 02:18:57;;;;;;;5.93;3.70;;;5.70;76.30;;;;;;5045168;28;20014;-76
2021/04/17 02:21:31;;;;;;;6.30;3.58;;;5.60;76.80;;;;;;5047499;28;20033;-76
2021/04/17 02:23:58;;;;;;;7.07;3.50;;;5.60;77.10;;;;;;5031805;28;20098;-76
2021/04/17 02:26:24;;;;;;;6.65;3.13;;;5.60;77.20;;;;;;5032545;28;20021;-76
2021/04/17 02:28:50;;;;;;;6.38;2.70;;;5.50;77.40;;;;;;5048186;28;20018;-76
2021/04/17 02:31:16;;;;;;;7.95;3.30;;;5.50;77.40;;;;;;5033583;28;20024;-76
2021/04/17 02:33:42;;;;;;;5.13;2.92;;;5.50;77.70;;;;;;5046303;28;20018;-76
2021/04/17 02:36:08;;;;;;;6.63;3.17;;;5.50;77.70;;;;;;5047025;28;20018;-76
2021/04/17 02:38:34;;;;;;;6.90;3.00;;;5.40;77.90;;;;;;5033467;28;20068;-76
2021/04/17 02:40:59;;;;;;;6.40;3.45;;;5.40;78.20;;;;;;5029512;28;20536;-76
2021/04/17 02:43:25;;;;;;;7.13;3.83;;;5.40;78.80;;;;;;5033203;28;20045;-76
2021/04/17 02:45:50;;;;;;;7.03;3.60;;;5.30;79.00;;;;;;5047825;28;20080;-76
2021/04/17 02:48:16;;;;;;;7.97;3.70;;;5.30;79.40;;;;;;5031509;28;20045;-76
2021/04/17 02:50:42;;;;;;;6.88;3.45;;;5.30;79.90;;;;;;5047357;28;20021;-76
2021/04/17 02:53:07;;;;;;;8.38;3.92;;;5.30;80.10;;;;;;5033155;28;20049;-76
2021/04/17 02:55:33;;;;;;;6.97;3.92;;;5.30;80.30;;;;;;5033121;28;20033;-76
2021/04/17 02:57:58;;;;;;;6.55;3.85;;;5.30;80.70;;;;;;5048166;28;20072;-76
2021/04/17 03:00:24;;;;;;;7.53;2.80;;;5.30;80.80;;;;;;5032913;28;20025;-76
2021/04/17 03:02:50;;;;;;;6.22;3.28;;;5.30;80.60;;;;;;5032835;28;20017;-76
2021/04/17 03:05:16;;;;;;;8.90;3.40;;;5.30;81.20;;;;;;5031339;28;20377;-76
2021/04/17 03:07:42;;;;;;;11.75;4.40;;;5.30;81.60;;;;;;5031642;28;20022;-76
2021/04/17 03:10:08;;;;;;;6.88;4.50;;;5.30;83.10;;;;;;5046697;28;20378;-76
2021/04/17 03:12:34;;;;;;;8.35;3.97;;;5.30;83.80;;;;;;5032845;28;20075;-76
2021/04/17 03:15:01;;;;;;;7.65;3.75;;;5.20;84.40;;;;;;5032113;28;20048;-77
2021/04/17 03:17:26;;;;;;;7.47;3.80;;;5.20;85.10;;;;;;5045804;28;20056;-76
2021/04/17 03:19:52;;;;;;;7.25;4.30;;;5.20;84.90;;;;;;5032636;28;20017;-76
2021/04/17 03:22:17;;;;;;;10.43;3.90;;;5.20;85.00;;;;;;5031113;28;20021;-76
2021/04/17 03:24:44;;;;;;;7.18;3.28;;;5.20;85.40;;;;;;5046881;28;20017;-76
2021/04/17 03:27:09;;;;;;;7.78;3.90;;;5.10;85.50;;;;;;5032612;28;20045;-76
2021/04/17 03:29:35;;;;;;;7.63;3.08;;;5.10;86.00;;;;;;5032735;28;20068;-76
2021/04/17 03:32:00;;;;;;;7.32;3.80;;;5.00;86.10;;;;;;5032293;28;20018;-76
2021/04/17 03:34:26;;;;;;;6.93;3.60;;;5.00;86.50;;;;;;5045553;28;20040;-76
2021/04/17 03:36:52;;;;;;;10.38;4.68;;;5.00;86.30;;;;;;5031148;28;20112;-76
2021/04/17 03:39:17;;;;;;;4.95;3.03;;;5.00;86.80;;;;;;5032249;28;20519;-76
2021/04/17 03:41:43;;;;;;;6.53;2.95;;;4.90;86.70;;;;;;5046644;28;20021;-76
2021/04/17 03:44:09;;;;;;;12.40;3.90;;;5.00;86.70;;;;;;5031936;28;20053;-76
2021/04/17 03:46:34;;;;;;;8.82;3.60;;;5.00;87.00;;;;;;5047343;28;20036;-76
2021/04/17 03:49:00;;;;;;;8.20;3.65;;;5.00;87.30;;;;;;5043212;28;20013;-76
2021/04/17 03:51:26;;;;;;;7.15;3.35;;;4.90;87.30;;;;;;5045329;28;20483;-76
2021/04/17 03:53:52;;;;;;;6.35;3.30;;;4.90;87.70;;;;;;5032282;28;20014;-76
2021/04/17 03:56:19;;;;;;;6.95;2.90;;;4.90;87.50;;;;;;5046909;28;20114;-76
2021/04/17 03:58:44;;;;;;;5.80;2.88;;;4.90;87.30;;;;;;5044921;28;20014;-76
2021/04/17 04:01:10;;;;;;;7.20;3.60;;;4.90;87.50;;;;;;5031874;28;20052;-76
2021/04/17 04:03:35;;;;;;;11.35;4.53;;;4.90;88.10;;;;;;5030307;28;20053;-76
2021/04/17 04:06:01;;;;;;;6.28;3.08;;;4.80;88.30;;;;;;5045947;28;20021;-76
2021/04/17 04:08:27;;;;;;;6.55;3.33;;;4.80;88.20;;;;;;5032059;28;20470;-76
2021/04/17 04:10:53;;;;;;;5.53;2.90;;;4.80;88.30;;;;;;5046766;28;20029;-76
2021/04/17 04:13:18;;;;;;;9.35;3.60;;;4.80;88.30;;;;;;5031937;28;20105;-76
2021/04/17 04:15:44;;;;;;;6.75;3.15;;;4.80;88.50;;;;;;5044021;28;20025;-76
2021/04/17 04:18:10;;;;;;;6.30;3.00;;;4.80;88.40;;;;;;5044912;28;20087;-76
2021/04/17 04:20:35;;;;;;;5.57;2.97;;;4.80;88.60;;;;;;5030113;28;20051;-76
2021/04/17 04:23:01;;;;;;;5.72;2.85;;;4.80;88.80;;;;;;5032061;28;20032;-76
2021/04/17 04:25:27;;;;;;;6.88;3.28;;;4.80;88.60;;;;;;5045133;28;20029;-76
2021/04/17 04:27:53;;;;;;;8.27;4.45;;;4.80;88.80;;;;;;5030721;28;20032;-76
2021/04/17 04:30:19;;;;;;;8.15;3.33;;;4.80;89.20;;;;;;5046500;28;20025;-76
2021/04/17 04:32:44;;;;;;;7.05;3.38;;;4.80;89.50;;;;;;5031809;28;20032;-76
2021/04/17 04:35:10;;;;;;;5.55;3.00;;;4.90;89.60;;;;;;5030563;28;20477;-76
2021/04/17 04:37:36;;;;;;;7.38;3.50;;;4.90;89.60;;;;;;5030060;28;20505;-76
2021/04/17 04:40:03;;;;;;;8.45;3.60;;;4.90;89.90;;;;;;5031888;28;20026;-76
2021/04/17 04:42:28;;;;;;;6.95;3.28;;;4.90;90.10;;;;;;5031699;28;20029;-76
2021/04/17 04:44:54;;;;;;;8.25;3.70;;;4.90;90.20;;;;;;5031486;28;20045;-76
2021/04/17 04:47:19;;;;;;;5.70;3.45;;;4.90;90.30;;;;;;5050490;28;20017;-76
2021/04/17 04:49:45;;;;;;;11.52;3.83;;;4.90;90.40;;;;;;5033870;28;20026;-76
2021/04/17 04:52:10;;;;;;;4.65;2.63;;;4.90;90.40;;;;;;5035514;28;20535;-76
2021/04/17 04:54:36;;;;;;;4.60;2.42;;;4.90;90.40;;;;;;5049791;28;20052;-76
2021/04/17 04:57:02;;;;;;;9.52;3.47;;;4.90;90.40;;;;;;5050533;28;20029;-76
2021/04/17 04:59:27;;;;;;;8.77;4.13;;;4.80;90.50;;;;;;5047779;28;20072;-76
2021/04/17 05:01:53;;;;;;;5.45;2.80;;;4.90;90.50;;;;;;5035265;28;20440;-76
2021/04/17 05:04:18;;;;;;;7.47;3.47;;;4.90;90.50;;;;;;5048637;28;20112;-76
2021/04/17 05:06:44;;;;;;;5.40;2.80;;;4.90;90.50;;;;;;5035305;28;20025;-76
2021/04/17 05:09:10;;;;;;;6.35;2.97;;;4.90;90.40;;;;;;5035179;28;20096;-76
2021/04/17 05:11:36;;;;;;;4.57;2.55;;;4.80;90.40;;;;;;5035032;28;20101;-77
2021/04/17 05:14:02;;;;;;;5.85;2.95;;;4.80;90.50;;;;;;5050194;28;20108;-76
2021/04/17 05:16:27;;;;;;;6.43;2.58;;;4.80;90.50;;;;;;5046978;28;20021;-76
2021/04/17 05:18:53;;;;;;;6.10;2.70;;;4.80;90.50;;;;;;5032835;28;20021;-77
2021/04/17 05:21:18;;;;;;;6.45;2.80;;;4.80;90.60;;;;;;5048434;28;20063;-76
2021/04/17 05:23:44;;;;;;;4.53;2.35;;;4.80;90.90;;;;;;5034878;28;20025;-77
2021/04/17 05:26:09;;;;;;;6.38;2.72;;;4.80;90.60;;;;;;5049314;28;20009;-76
2021/04/17 05:28:35;;;;;;;4.93;2.55;;;4.80;90.60;;;;;;5034667;28;20466;-76
2021/04/17 05:31:00;;;;;;;7.50;3.25;;;4.80;90.60;;;;;;5033497;28;20175;-77
2021/04/17 05:33:26;;;;;;;5.32;2.70;;;4.80;90.70;;;;;;5034480;28;20084;-76
2021/04/17 05:35:51;;;;;;;5.97;2.90;;;4.80;90.80;;;;;;5034757;28;20040;-77
2021/04/17 05:38:17;;;;;;;6.00;3.00;;;4.90;90.80;;;;;;5034662;28;20071;-76
2021/04/17 05:40:43;;;;;;;7.30;2.85;;;4.90;90.80;;;;;;5047177;28;20026;-78
2021/04/17 05:43:08;;;;;;;7.32;3.13;;;4.90;90.80;;;;;;5034580;28;20093;-76
2021/04/17 05:45:34;;;;;;;8.38;3.45;;;4.90;90.90;;;;;;5048795;28;20046;-78
2021/04/17 05:47:59;;;;;;;6.50;3.58;;;4.90;91.10;;;;;;5032627;28;20100;-76
2021/04/17 05:50:25;;;;;;;4.93;3.35;;;4.90;91.20;;;;;;5048307;28;20033;-76
2021/04/17 05:52:50;;;;;;;4.85;2.47;;;4.90;91.10;;;;;;5048517;28;20021;-76
2021/04/17 05:55:16;;;;;;;5.45;3.13;;;5.00;91.10;;;;;;5034419;28;20047;-76
2021/04/17 05:57:41;;;;;;;6.55;2.90;;;5.00;91.10;;;;;;5029010;28;20021;-76
2021/04/17 06:00:08;;;;;;;5.38;2.80;;;5.00;91.20;;;;;;5034286;28;20025;-75
2021/04/17 06:02:34;;;;;;;6.18;2.78;;;5.10;91.30;;;;;;5034081;28;20025;-75
2021/04/17 06:04:59;;;;;;;3.70;2.67;;;5.10;91.40;;;;;;5032719;28;20027;-75
2021/04/17 06:07:25;;;;;;;5.53;2.85;;;5.10;91.40;;;;;;5034185;28;20014;-75
2021/04/17 06:09:51;;;;;;;5.15;2.92;;;5.10;91.60;;;;;;5032726;28;20389;-75
2021/04/17 06:12:16;;;;;;;8.70;3.65;;;5.20;91.60;;;;;;5048584;28;20481;-75
2021/04/17 06:14:42;;;;;;;6.68;3.35;;;5.20;91.70;;;;;;5032697;28;20021;-75
2021/04/17 06:17:07;;;;;;;7.50;3.20;;;5.20;91.90;;;;;;5033931;28;20021;-75
2021/04/17 06:19:33;;;;;;;9.25;3.55;;;5.20;92.10;;;;;;5046967;28;20032;-77
2021/04/17 06:21:58;;;;;;;6.13;3.17;;;5.20;92.20;;;;;;5033412;28;20021;-76
2021/04/17 06:24:24;;;;;;;3.58;2.70;;;5.30;92.30;;;;;;5047853;28;20021;-76
2021/04/17 06:26:49;;;;;;;6.38;3.10;;;5.30;92.30;;;;;;5032851;28;20028;-77
2021/04/17 06:29:15;;;;;;;6.68;3.25;;;5.40;92.30;;;;;;5047881;28;20037;-76
2021/04/17 06:31:41;;;;;;;6.47;3.45;;;5.40;92.50;;;;;;5047997;28;20025;-76
2021/04/17 06:34:06;;;;;;;6.57;3.38;;;5.50;92.70;;;;;;5030842;28;20021;-76
2021/04/17 06:36:33;;;;;;;8.02;4.22;;;5.50;92.60;;;;;;5032908;28;20029;-76
2021/04/17 06:38:58;;;;;;;8.85;3.70;;;5.50;93.30;;;;;;5047090;28;20432;-76
2021/04/17 06:41:27;;;;;;;7.28;3.78;;;5.50;93.30;;;;;;5047468;28;20469;-77
2021/04/17 06:43:53;;;;;;;5.07;3.25;;;5.60;93.40;;;;;;5046736;28;20057;-76
2021/04/17 06:46:20;;;;;;;6.93;3.25;;;5.60;93.30;;;;;;5047535;28;20029;-76
2021/04/17 06:48:47;;;;;;;6.82;3.63;;;5.70;93.20;;;;;;5045852;28;20052;-80
2021/04/17 06:51:15;;;;;;;6.35;3.15;;;5.70;93.20;;;;;;5047162;28;20026;-78
2021/04/17 06:53:42;;;;;;;8.07;3.67;;;5.80;93.10;;;;;;5047109;28;20374;-78
2021/04/17 06:56:08;;;;;;;9.35;4.13;;;5.90;93.30;;;;;;5026952;28;20068;-77
2021/04/17 06:58:35;;;;;;;9.93;3.35;;;6.00;93.60;;;;;;5029991;28;20036;-76
2021/04/17 07:01:00;;;;;;;8.02;3.42;;;6.00;93.70;;;;;;5024265;28;20125;-76
2021/04/17 07:03:26;;;;;;;11.57;3.78;;;6.10;93.80;;;;;;5045078;28;20104;-76
2021/04/17 07:05:52;;;;;;;6.13;3.38;;;6.20;94.00;;;;;;5053473;28;20044;-76
2021/04/17 07:08:17;;;;;;;7.97;3.35;;;6.20;94.10;;;;;;5052074;28;20060;-76
2021/04/17 07:10:43;;;;;;;7.82;2.78;;;6.20;94.00;;;;;;5052202;28;20031;-76
2021/04/17 07:13:12;;;;;;;7.03;3.53;;;6.30;94.20;;;;;;5052417;28;20496;-76
2021/04/17 07:15:39;;;;;;;9.40;2.90;;;6.40;94.40;;;;;;5045912;28;20501;-76
2021/04/17 07:18:23;;;;;;;9.60;3.50;;;6.40;94.30;;;;;;5033644;28;20156;-76
2021/04/17 07:20:49;;;;;;;5.47;3.05;;;6.50;94.40;;;;;;5033198;28;20025;-76
2021/04/17 07:23:32;;;;;;;5.32;2.72;;;6.50;94.40;;;;;;5033511;28;20032;-76
2021/04/17 07:26:11;;;;;;;8.10;2.92;;;6.60;94.20;;;;;;5033697;28;20110;-76
2021/04/17 07:28:39;;;;;;;8.35;3.00;;;6.60;94.20;;;;;;5031434;28;20404;-76
2021/04/17 07:31:05;;;;;;;6.07;2.83;;;6.70;94.20;;;;;;5030651;28;20079;-76
2021/04/17 07:33:31;;;;;;;6.85;3.33;;;6.80;94.00;;;;;;5032094;28;20052;-76
2021/04/17 07:35:57;;;;;;;5.63;2.58;;;6.90;94.00;;;;;;5030621;28;20092;-76
2021/04/17 07:38:34;;;;;;;7.70;2.83;;;6.90;93.80;;;;;;5028290;28;20036;-76
2021/04/17 07:41:02;;;;;;;4.30;2.50;;;7.00;93.70;;;;;;5031771;28;20025;-76
2021/04/17 07:43:46;;;;;;;5.07;2.22;;;7.10;93.70;;;;;;5028957;28;20025;-76
2021/04/17 07:46:12;;;;;;;5.70;2.42;;;7.20;93.40;;;;;;5031778;28;20108;-76
2021/04/17 07:48:38;;;;;;;4.03;2.38;;;7.20;93.20;;;;;;5031551;28;20014;-77
2021/04/17 07:51:07;;;;;;;5.03;2.50;;;7.30;92.80;;;;;;5030761;28;20028;-76
2021/04/17 07:53:39;;;;;;;5.25;2.30;;;7.40;92.40;;;;;;5030694;28;20030;-76
2021/04/17 07:56:28;;;;;;;5.00;2.30;;;7.50;92.20;;;;;;5030543;28;20092;-76
2021/04/17 07:59:05;;;;;;;5.18;2.10;;;7.60;91.80;;;;;;5046394;28;20053;-76
2021/04/17 08:01:32;;;;;;;6.57;2.22;;;7.70;91.60;;;;;;5032022;28;20017;-76
2021/04/17 08:04:00;;;;;;;5.90;2.30;;;7.70;91.20;;;;;;5030035;28;20014;-76
2021/04/17 08:06:27;;;;;;;6.82;2.05;;;7.80;91.20;;;;;;5031737;28;20018;-76
2021/04/17 08:08:59;;;;;;;6.00;2.60;;;7.90;91.10;;;;;;5018397;28;20044;-76
2021/04/17 08:11:29;;;;;;;3.88;1.80;;;8.00;90.60;;;;;;5031655;28;20116;-77
2021/04/17 08:13:55;;;;;;;3.17;1.75;;;8.10;90.60;;;;;;5031865;28;20072;-76
2021/04/17 08:16:21;;;;;;;4.70;2.10;;;8.20;90.20;;;;;;5030364;28;20033;-77
2021/04/17 08:18:47;;;;;;;6.10;1.92;;;8.30;89.90;;;;;;5031660;28;20162;-76
2021/04/17 08:21:20;;;;;;;3.72;1.60;;;8.40;89.70;;;;;;5032431;28;20534;-77
2021/04/17 08:23:48;;;;;;;4.07;1.65;;;8.50;89.20;;;;;;5035609;28;20025;-77
2021/04/17 08:26:14;;;;;;;4.47;1.92;;;8.60;88.00;;;;;;5035421;28;20026;-76
2021/04/17 08:28:42;;;;;;;4.38;1.63;;;8.60;87.10;;;;;;5035487;28;20017;-76
2021/04/17 08:31:28;;;;;;;5.47;1.88;;;8.70;85.40;;;;;;5035654;28;20028;-76
2021/04/17 08:34:08;;;;;;;7.13;2.10;;;8.80;84.30;;;;;;5035443;28;20022;-76
2021/04/17 08:36:37;;;;;;;4.55;1.80;;;9.00;82.60;;;;;;5034127;28;20104;-76
2021/04/17 08:39:05;;;;;;;3.55;1.30;;;9.00;82.60;;;;;;5035295;28;20048;-76
2021/04/17 08:41:41;;;;;;;2.88;1.70;;;9.10;82.50;;;;;;5034059;28;20022;-77
2021/04/17 08:44:26;;;;;;;4.03;1.63;;;9.20;82.70;;;;;;5035241;28;20049;-77
2021/04/17 08:46:53;;;;;;;4.15;1.60;;;9.30;80.50;;;;;;5035098;28;20100;-77
2021/04/17 08:49:24;;;;;;;3.22;1.08;;;9.40;80.00;;;;;;5035296;28;20017;-77
2021/04/17 08:51:50;;;;;;;2.22;1.25;;;9.50;79.60;;;;;;5033945;28;20473;-76
2021/04/17 08:54:18;;;;;;;2.15;1.00;;;9.50;77.70;;;;;;5034995;28;20116;-76
2021/04/17 08:56:57;;;;;;;3.92;1.10;;;9.60;77.10;;;;;;5034805;28;20542;-76
2021/04/17 08:59:28;;;;;;;2.50;0.80;;;9.70;76.20;;;;;;5049479;28;20029;-77
2021/04/17 09:01:56;;;;;;;2.67;1.00;;;9.80;76.40;;;;;;5033842;28;20018;-76
2021/04/17 09:04:23;;;;;;;4.03;1.15;;;9.90;75.20;;;;;;5050099;28;20373;-77
2021/04/17 09:06:52;;;;;;;4.00;1.20;;;10.10;75.30;;;;;;5033221;28;20431;-77
2021/04/17 09:09:20;;;;;;;3.38;1.10;;;10.20;74.60;;;;;;5034464;28;20018;-76
2021/04/17 09:11:49;;;;;;;4.53;1.17;;;10.30;74.40;;;;;;5034505;28;20090;-77
2021/04/17 09:14:31;;;;;;;4.07;0.90;;;10.40;74.20;;;;;;5033565;28;20051;-77
2021/04/17 09:16:58;;;;;;;3.35;1.15;;;10.60;73.20;;;;;;5033691;28;20022;-77
2021/04/17 09:19:39;;;;;;;2.28;0.93;;;10.70;72.40;;;;;;5049566;28;20392;-77
2021/04/17 09:22:27;;;;;;;2.17;0.80;;;10.90;71.70;;;;;;5032876;28;20389;-77
2021/04/17 09:24:58;;;;;;;4.80;1.70;;;11.00;71.50;;;;;;5034692;28;20468;-77
2021/04/17 09:27:44;;;;;;;3.92;1.20;;;11.10;70.40;;;;;;5045800;28;20026;-77
2021/04/17 09:30:12;;;;;;;2.17;0.98;;;11.10;69.10;;;;;;5033298;28;20120;-76
2021/04/17 09:32:41;;;;;;;4.50;1.10;;;11.20;69.20;;;;;;5034063;28;20095;-77
2021/04/17 09:35:14;;;;;;;2.03;0.90;;;11.40;68.20;;;;;;5028231;28;20029;-77
2021/04/17 09:37:41;;;;;;;3.92;1.10;;;11.60;67.00;;;;;;5033035;28;20025;-77
2021/04/17 09:40:07;;;;;;;3.55;0.95;;;11.70;66.80;;;;;;5033944;28;20052;-77
2021/04/17 09:42:38;;;;;;;5.03;1.08;;;12.40;68.90;;;;;;5050238;28;20056;-78
2021/04/17 09:45:06;;;;;;;3.42;1.23;;;14.90;60.70;;;;;;5034844;28;20045;-79
2021/04/17 09:47:32;;;;;;;2.10;0.85;;;16.90;53.90;;;;;;5033922;28;20030;-77
2021/04/17 09:49:57;;;;;;;1.27;0.80;;;19.00;51.20;;;;;;5044922;28;20498;-78
2021/04/17 09:52:24;;;;;;;4.60;0.90;;;20.50;46.50;;;;;;5032894;28;20037;-78
2021/04/17 09:55:00;;;;;;;2.70;0.80;;;21.60;43.70;;;;;;5033277;28;20370;-78
2021/04/17 09:57:27;;;;;;;2.85;0.80;;;22.40;41.90;;;;;;5033600;28;20495;-78
2021/04/17 09:59:57;;;;;;;2.75;0.77;;;23.40;41.20;;;;;;5033942;28;20030;-78
2021/04/17 10:02:38;;;;;;;3.00;1.00;;;23.70;39.80;;;;;;5032309;28;20021;-78
2021/04/17 10:05:04;;;;;;;4.32;1.20;;;24.60;38.80;;;;;;5031606;28;20029;-78
2021/04/17 10:07:41;;;;;;;3.17;0.80;;;25.40;35.80;;;;;;5046572;28;20499;-78
2021/04/17 10:10:08;;;;;;;2.22;0.70;;;26.00;36.10;;;;;;5032485;28;20022;-78
2021/04/17 10:12:55;;;;;;;2.20;0.98;;;26.60;34.90;;;;;;5033619;28;20017;-78
2021/04/17 10:15:26;;;;;;;1.88;0.90;;;27.50;32.60;;;;;;5033263;28;20484;-78
2021/04/17 10:18:04;;;;;;;3.25;1.00;;;26.10;33.60;;;;;;5048541;28;20509;-78
2021/04/17 10:20:29;;;;;;;2.13;0.88;;;24.40;33.50;;;;;;5031886;28;20076;-78
2021/04/17 10:23:00;;;;;;;2.42;1.40;;;23.20;36.10;;;;;;5032279;28;20025;-78
2021/04/17 10:25:43;;;;;;;1.60;0.85;;;24.20;34.60;;;;;;5046618;28;20500;-78
2021/04/17 10:28:22;;;;;;;1.88;1.00;;;25.70;33.30;;;;;;5032211;28;20021;-78
2021/04/17 10:30:52;;;;;;;2.80;1.10;;;27.10;33.90;;;;;;5016640;28;20021;-78
2021/04/17 10:33:23;;;;;;;3.42;1.25;;;27.50;31.30;;;;;;5031997;28;20025;-78
2021/04/17 10:35:50;;;;;;;4.25;1.58;;;27.30;31.60;;;;;;5031308;28;20461;-79
2021/04/17 10:38:23;;;;;;;3.28;1.65;;;28.00;30.20;;;;;;5017424;28;20034;-80
2021/04/17 10:40:49;;;;;;;5.28;1.35;;;29.10;30.80;;;;;;5031080;28;20017;-78
2021/04/17 10:43:18;;;;;;;2.28;0.95;;;29.70;29.20;;;;;;5032423;28;20022;-79
2021/04/17 10:45:45;;;;;;;2.97;0.98;;;30.30;28.90;;;;;;5028876;28;20045;-80
2021/04/17 10:48:14;;;;;;;3.92;1.20;;;30.70;29.40;;;;;;5028898;28;20089;-79
2021/04/17 10:50:54;;;;;;;2.83;1.27;;;31.20;29.10;;;;;;5014770;28;20026;-80
2021/04/17 10:53:28;;;;;;;2.67;1.35;;;31.10;28.00;;;;;;5015723;28;20381;-80
2021/04/17 10:55:56;;;;;;;2.58;1.10;;;29.70;27.60;;;;;;5017609;28;20029;-78
2021/04/17 10:58:32;;;;;;;3.73;1.10;;;29.40;29.20;;;;;;5030849;28;20396;-78
2021/04/17 11:01:02;;;;;;;1.90;1.20;;;29.20;29.20;;;;;;5030217;28;20018;-78
2021/04/17 11:03:31;;;;;;;2.53;1.25;;;28.80;29.40;;;;;;5031242;28;20034;-79
2021/04/17 11:05:57;;;;;;;2.80;1.20;;;28.90;29.90;;;;;;5044965;28;20071;-79
2021/04/17 11:08:25;;;;;;;3.17;1.35;;;27.40;30.00;;;;;;5045897;28;20071;-79
2021/04/17 11:10:52;;;;;;;4.07;1.40;;;25.70;31.00;;;;;;5032384;28;20044;-79
2021/04/17 11:13:34;;;;;;;2.85;1.45;;;24.30;32.10;;;;;;5046825;28;20118;-78
2021/04/17 11:16:01;;;;;;;2.60;1.40;;;23.70;33.60;;;;;;5031074;28;20025;-78
2021/04/17 11:18:36;;;;;;;2.97;1.33;;;25.00;34.00;;;;;;5032059;28;20119;-78
2021/04/17 11:21:05;;;;;;;2.63;1.10;;;26.80;33.10;;;;;;5030355;28;20476;-79
2021/04/17 11:23:36;;;;;;;3.67;1.30;;;28.40;30.90;;;;;;5031498;28;20104;-79
2021/04/17 11:26:11;;;;;;;3.00;1.30;;;27.80;28.50;;;;;;5025586;28;20022;-79
2021/04/17 11:28:42;;;;;;;4.18;1.40;;;27.80;29.70;;;;;;5027027;28;20485;-79
2021/04/17 11:31:09;;;;;;;3.28;1.80;;;29.00;29.40;;;;;;5027339;28;20057;-79
2021/04/17 11:33:35;;;;;;;3.15;1.20;;;29.90;28.70;;;;;;5045033;28;20032;-79
2021/04/17 11:36:01;;;;;;;3.47;1.58;;;31.00;29.10;;;;;;5030259;28;20026;-80
2021/04/17 11:38:28;;;;;;;3.10;1.25;;;31.40;28.40;;;;;;5030650;28;20517;-80
2021/04/17 11:40:53;;;;;;;3.35;1.33;;;31.60;28.30;;;;;;5031695;28;20025;-80
2021/04/17 11:43:19;;;;;;;3.22;1.58;;;31.20;28.60;;;;;;5030873;28;20017;-80
2021/04/17 11:45:45;;;;;;;5.13;1.90;;;29.30;28.40;;;;;;5031680;28;20041;-80
2021/04/17 11:48:11;;;;;;;4.43;2.40;;;27.50;29.20;;;;;;5030389;28;20473;-80
2021/04/17 11:50:37;;;;;;;2.80;1.35;;;26.30;29.50;;;;;;5046566;28;20017;-78
2021/04/17 11:53:03;;;;;;;4.75;2.30;;;26.20;30.90;;;;;;5029748;28;20049;-79
2021/04/17 11:55:29;;;;;;;3.95;1.80;;;26.70;29.60;;;;;;5029278;28;20072;-79
2021/04/17 11:57:54;;;;;;;3.60;1.75;;;26.40;30.30;;;;;;5029843;28;20021;-79
2021/04/17 12:00:20;;;;;;;3.85;1.77;;;25.80;31.30;;;;;;5030400;28;20057;-78
2021/04/17 12:02:46;;;;;;;4.80;1.52;;;24.90;31.40;;;;;;5019190;28;20384;-79
2021/04/17 12:05:12;;;;;;;2.75;1.65;;;24.30;32.00;;;;;;5022525;28;20109;-80
2021/04/17 12:07:38;;;;;;;3.22;1.30;;;24.30;32.60;;;;;;5028672;28;20060;-80
2021/04/17 12:10:05;;;;;;;2.47;1.50;;;24.00;33.30;;;;;;5031767;28;20052;-79
2021/04/17 12:12:31;;;;;;;3.25;1.65;;;23.50;33.10;;;;;;5030622;28;20028;-80
2021/04/17 12:14:56;;;;;;;4.22;1.98;;;23.30;32.90;;;;;;5018700;28;20026;-79
2021/04/17 12:17:22;;;;;;;4.38;1.90;;;22.80;33.80;;;;;;5012401;28;20485;-78
2021/04/17 12:19:47;;;;;;;5.50;2.80;;;22.20;34.50;;;;;;5014022;28;20033;-78
2021/04/17 12:22:13;;;;;;;3.97;2.13;;;21.90;34.90;;;;;;5014963;28;20022;-79
2021/04/17 12:24:38;;;;;;;3.83;1.75;;;21.70;35.60;;;;;;5013670;28;20026;-79
2021/04/17 12:27:05;;;;;;;2.90;1.17;;;21.60;36.60;;;;;;5041467;28;20537;-78
2021/04/17 12:29:31;;;;;;;3.67;1.23;;;22.00;36.50;;;;;;5013736;28;20026;-79
2021/04/17 12:31:57;;;;;;;3.88;1.60;;;22.00;35.90;;;;;;5023682;28;20040;-79
2021/04/17 12:34:22;;;;;;;4.60;1.75;;;22.10;35.80;;;;;;5009222;28;20382;-79
2021/04/17 12:36:48;;;;;;;4.22;1.30;;;21.60;35.40;;;;;;5028279;28;20041;-78
2021/04/17 12:39:14;;;;;;;3.78;1.55;;;21.30;36.00;;;;;;5022237;28;20022;-79
2021/04/17 12:41:39;;;;;;;4.00;1.58;;;22.80;36.20;;;;;;5019242;28;20029;-78
2021/04/17 12:44:10;;;;;;;4.78;1.60;;;23.50;34.70;;;;;;5022591;28;20142;-79
2021/04/17 12:46:36;;;;;;;1.88;1.23;;;23.40;34.30;;;;;;5029716;28;20025;-79
2021/04/17 12:49:01;;;;;;;3.75;1.55;;;22.60;33.50;;;;;;5017706;28;20025;-79
2021/04/17 12:51:27;;;;;;;3.65;2.08;;;22.10;34.20;;;;;;5027777;28;20037;-79
2021/04/17 12:53:52;;;;;;;4.57;1.67;;;21.90;33.80;;;;;;5046216;28;20017;-79
2021/04/17 12:56:18;;;;;;;22.90;9.43;;;21.60;34.50;;;;;;5024201;28;20062;-79
2021/04/17 12:58:43;;;;;;;7.35;3.15;;;22.20;34.40;;;;;;5025774;28;20029;-79